Time;durP1;ratioP1;P1;durP2;ratioP2;P2;SDS_P1;SDS_P2;PMS_P1;PMS_P2;Temp;Humidity;BMP_temperature;BMP_pressure;BME280_temperature;BME280_humidity;BME280_pressure;Samples;Min_cycle;Max_cycle;Signal;HPM_P1;HPM_P2
2021/04/16 00:01:17;;;;;;;6.20;2.43;;;4.10;79.80;;;;;;5113810;28;20289;-66
2021/04/16 00:03:43;;;;;;;5.07;2.97;;;4.10;79.80;;;;;;5114447;28;20058;-66
2021/04/16 00:06:09;;;;;;;6.23;2.40;;;4.10;79.80;;;;;;5114403;28;20297;-67
2021/04/16 00:08:37;;;;;;;4.10;2.00;;;4.10;79.90;;;;;;5113818;28;20096;-67
2021/04/16 00:11:23;;;;;;;9.93;2.83;;;4.10;80.00;;;;;;5114191;28;20092;-67
2021/04/16 00:13:49;;;;;;;5.07;2.50;;;4.20;80.30;;;;;;5114412;28;20329;-66
2021/04/16 00:16:19;;;;;;;3.97;2.30;;;4.10;80.20;;;;;;5113550;28;20320;-67
2021/04/16 00:18:45;;;;;;;5.80;2.50;;;4.10;80.40;;;;;;5114184;28;20376;-66
2021/04/16 00:21:11;;;;;;;4.73;2.83;;;4.10;80.50;;;;;;5113974;28;20312;-66
2021/04/16 00:23:37;;;;;;;7.03;2.37;;;4.00;80.60;;;;;;5113311;28;20777;-67
2021/04/16 00:26:08;;;;;;;6.07;2.60;;;4.00;80.70;;;;;;5113965;28;20377;-66
2021/04/16 00:28:34;;;;;;;6.33;2.53;;;4.00;80.80;;;;;;5113687;28;20119;-67
2021/04/16 00:31:15;;;;;;;5.13;2.70;;;4.00;80.90;;;;;;5113745;28;20309;-67
2021/04/16 00:33:42;;;;;;;9.18;2.63;;;4.00;81.00;;;;;;5113939;28;20646;-66
2021/04/16 00:36:09;;;;;;;7.00;2.80;;;4.00;81.00;;;;;;5113295;28;20055;-66
2021/04/16 00:38:35;;;;;;;4.33;2.57;;;3.90;81.10;;;;;;5114289;28;20302;-67
2021/04/16 00:41:03;;;;;;;4.53;2.53;;;3.90;81.30;;;;;;5113500;28;20571;-67
2021/04/16 00:43:31;;;;;;;9.00;2.73;;;3.90;81.30;;;;;;5113360;28;20777;-67
2021/04/16 00:46:12;;;;;;;7.10;2.90;;;3.90;81.30;;;;;;5113252;28;20392;-67
2021/04/16 00:48:44;;;;;;;6.43;2.70;;;3.90;81.30;;;;;;5114090;28;20316;-67
2021/04/16 00:51:21;;;;;;;7.83;2.97;;;3.80;81.30;;;;;;5113043;28;20329;-67
2021/04/16 00:53:47;;;;;;;4.70;2.50;;;3.80;81.40;;;;;;5113500;28;20364;-67
2021/04/16 00:56:14;;;;;;;5.00;2.60;;;3.90;81.30;;;;;;5112456;28;20309;-67
2021/04/16 00:58:39;;;;;;;5.40;2.93;;;3.80;81.20;;;;;;5113166;28;20298;-66
2021/04/16 01:01:05;;;;;;;5.43;2.83;;;3.80;81.10;;;;;;5113364;28;20301;-66
2021/04/16 01:03:32;;;;;;;9.07;3.47;;;3.80;81.20;;;;;;5113602;28;20119;-66
2021/04/16 01:06:03;;;;;;;8.17;2.97;;;3.80;81.20;;;;;;5112340;28;20122;-67
2021/04/16 01:08:28;;;;;;;5.03;2.60;;;3.70;81.30;;;;;;5113500;28;20304;-66
2021/04/16 01:10:54;;;;;;;4.00;2.50;;;3.70;81.30;;;;;;5112322;28;20293;-67
2021/04/16 01:13:23;;;;;;;6.20;2.80;;;3.70;81.40;;;;;;5113335;28;20047;-66
2021/04/16 01:15:57;;;;;;;5.80;3.60;;;3.60;81.40;;;;;;5113085;28;20383;-67
2021/04/16 01:18:26;;;;;;;9.10;3.20;;;3.60;81.50;;;;;;5112862;28;20292;-67
2021/04/16 01:20:57;;;;;;;6.37;3.17;;;3.60;81.60;;;;;;5113126;28;20301;-66
2021/04/16 01:23:54;;;;;;;6.87;2.87;;;3.60;81.70;;;;;;5112963;28;20300;-66
2021/04/16 01:26:30;;;;;;;7.30;3.27;;;3.60;81.80;;;;;;5112733;28;20293;-67
2021/04/16 01:28:55;;;;;;;5.70;3.10;;;3.60;81.80;;;;;;5112458;28;20762;-66
2021/04/16 01:31:26;;;;;;;7.30;4.07;;;3.60;81.90;;;;;;5113026;28;20296;-66
2021/04/16 01:33:52;;;;;;;8.10;4.00;;;3.50;82.00;;;;;;5111854;28;20047;-66
2021/04/16 01:36:25;;;;;;;8.97;3.30;;;3.50;82.30;;;;;;5112938;28;20822;-66
2021/04/16 01:38:52;;;;;;;8.33;3.97;;;3.50;82.40;;;;;;5112088;28;20043;-66
2021/04/16 01:41:19;;;;;;;6.90;3.67;;;3.50;82.50;;;;;;5112660;28;20346;-66
2021/04/16 01:43:54;;;;;;;9.60;4.07;;;3.40;82.60;;;;;;5112472;28;20331;-66
2021/04/16 01:46:21;;;;;;;6.83;3.83;;;3.40;82.80;;;;;;5111973;28;20618;-67
2021/04/16 01:48:50;;;;;;;9.53;4.10;;;3.40;82.90;;;;;;5112682;28;20286;-66
2021/04/16 01:51:28;;;;;;;11.03;3.70;;;3.40;82.90;;;;;;5112393;28;20312;-67
2021/04/16 01:54:19;;;;;;;11.30;4.50;;;3.40;83.00;;;;;;5111369;28;20793;-66
2021/04/16 01:56:47;;;;;;;6.93;3.93;;;3.40;83.10;;;;;;5112177;28;20298;-67
2021/04/16 01:59:28;;;;;;;8.87;3.70;;;3.40;83.00;;;;;;5112117;28;20789;-66
2021/04/16 02:01:54;;;;;;;10.77;4.00;;;3.40;83.00;;;;;;5111560;28;20293;-66
2021/04/16 02:04:21;;;;;;;6.13;3.53;;;3.40;83.00;;;;;;5112441;28;20600;-66
2021/04/16 02:06:48;;;;;;;9.50;3.90;;;3.40;83.10;;;;;;5112213;28;20309;-67
2021/04/16 02:09:19;;;;;;;10.63;4.93;;;3.40;83.10;;;;;;5111162;28;20774;-66
2021/04/16 02:11:48;;;;;;;7.10;3.87;;;3.40;83.10;;;;;;5112252;28;20302;-67
2021/04/16 02:14:17;;;;;;;10.10;3.57;;;3.40;83.30;;;;;;5111276;28;20309;-67
2021/04/16 02:16:45;;;;;;;7.90;4.53;;;3.40;83.10;;;;;;5112082;27;20301;-66
2021/04/16 02:19:11;;;;;;;10.57;3.93;;;3.40;83.10;;;;;;5111845;28;20293;-67
2021/04/16 02:21:37;;;;;;;9.63;5.00;;;3.40;83.20;;;;;;5111438;28;20661;-67
2021/04/16 02:24:05;;;;;;;7.53;4.50;;;3.40;83.20;;;;;;5111423;28;20297;-66
2021/04/16 02:26:31;;;;;;;10.93;4.37;;;3.50;83.30;;;;;;5112065;28;20543;-67
2021/04/16 02:28:57;;;;;;;11.13;3.80;;;3.50;83.20;;;;;;5110962;28;20293;-66
2021/04/16 02:31:22;;;;;;;6.43;3.67;;;3.50;83.20;;;;;;5112410;28;20304;-66
2021/04/16 02:33:48;;;;;;;7.10;4.30;;;3.50;83.10;;;;;;5111624;28;20071;-67
2021/04/16 02:36:14;;;;;;;7.67;3.97;;;3.50;83.00;;;;;;5111010;28;20974;-66
2021/04/16 02:38:40;;;;;;;8.53;3.60;;;3.60;83.10;;;;;;5112006;28;20395;-66
2021/04/16 02:41:06;;;;;;;7.57;3.30;;;3.60;83.00;;;;;;5111840;28;20304;-67
2021/04/16 02:43:33;;;;;;;8.03;4.03;;;3.60;83.10;;;;;;5111311;28;20381;-66
2021/04/16 02:46:01;;;;;;;11.07;4.30;;;3.60;83.00;;;;;;5111329;28;20305;-66
2021/04/16 02:48:27;;;;;;;9.00;4.03;;;3.60;83.10;;;;;;5111921;28;20426;-67
2021/04/16 02:50:53;;;;;;;8.90;4.17;;;3.60;83.10;;;;;;5110769;28;20413;-67
2021/04/16 02:53:19;;;;;;;9.43;4.63;;;3.70;83.20;;;;;;5111643;28;20054;-66
2021/04/16 02:55:45;;;;;;;9.63;4.27;;;3.60;83.20;;;;;;5111627;28;20097;-66
2021/04/16 02:58:11;;;;;;;9.27;4.87;;;3.60;83.50;;;;;;5110752;28;20408;-66
2021/04/16 03:00:37;;;;;;;9.60;4.70;;;3.60;83.60;;;;;;5111860;28;20333;-66
2021/04/16 03:03:03;;;;;;;10.67;4.30;;;3.60;83.70;;;;;;5111138;28;20333;-66
2021/04/16 03:05:29;;;;;;;10.57;4.23;;;3.50;83.60;;;;;;5110796;28;20055;-66
2021/04/16 03:07:56;;;;;;;7.03;4.40;;;3.50;83.70;;;;;;5110985;28;20414;-66
2021/04/16 03:10:27;;;;;;;9.30;4.60;;;3.50;83.80;;;;;;5111004;28;20304;-66
2021/04/16 03:12:52;;;;;;;9.18;3.60;;;3.50;83.80;;;;;;5111566;28;20297;-66
2021/04/16 03:15:18;;;;;;;11.43;4.63;;;3.50;83.80;;;;;;5111220;28;20044;-66
2021/04/16 03:17:44;;;;;;;10.23;3.93;;;3.50;83.90;;;;;;5110526;28;20044;-66
2021/04/16 03:20:12;;;;;;;9.67;5.00;;;3.50;84.00;;;;;;5113108;28;20518;-66
2021/04/16 03:22:37;;;;;;;8.60;4.60;;;3.50;84.10;;;;;;5115647;28;20300;-66
2021/04/16 03:25:06;;;;;;;9.30;4.33;;;3.50;84.30;;;;;;5114097;28;20293;-66
2021/04/16 03:27:31;;;;;;;9.53;4.23;;;3.40;84.20;;;;;;5115804;28;20071;-66
2021/04/16 03:29:57;;;;;;;10.30;4.90;;;3.40;84.30;;;;;;5114694;28;20336;-66
2021/04/16 03:32:22;;;;;;;8.00;4.20;;;3.40;84.40;;;;;;5114709;28;20051;-66
2021/04/16 03:34:48;;;;;;;9.67;4.10;;;3.40;84.60;;;;;;5114907;28;20099;-66
2021/04/16 03:37:14;;;;;;;10.03;4.27;;;3.40;84.70;;;;;;5115192;28;20048;-66
2021/04/16 03:39:39;;;;;;;8.33;4.67;;;3.40;84.70;;;;;;5114857;28;20103;-67
2021/04/16 03:42:08;;;;;;;6.93;3.83;;;3.40;84.80;;;;;;5114659;28;20135;-66
2021/04/16 03:44:34;;;;;;;10.63;4.37;;;3.40;84.90;;;;;;5115281;28;20048;-66
2021/04/16 03:46:59;;;;;;;7.63;5.30;;;3.30;84.80;;;;;;5113699;27;20302;-66
2021/04/16 03:49:25;;;;;;;9.77;4.40;;;3.40;85.00;;;;;;5114928;28;20058;-66
2021/04/16 03:51:56;;;;;;;9.80;4.63;;;3.40;85.00;;;;;;5114885;28;20054;-66
2021/04/16 03:54:24;;;;;;;11.43;4.20;;;3.40;85.00;;;;;;5114087;28;20051;-66
2021/04/16 03:56:50;;;;;;;10.27;4.83;;;3.30;85.00;;;;;;5114679;28;20509;-66
2021/04/16 03:59:17;;;;;;;8.03;4.10;;;3.30;85.10;;;;;;5114619;28;20675;-66
2021/04/16 04:01:43;;;;;;;6.80;4.10;;;3.30;85.10;;;;;;5113655;28;20293;-66
2021/04/16 04:04:09;;;;;;;8.23;4.30;;;3.30;85.20;;;;;;5114421;28;20829;-67
2021/04/16 04:06:35;;;;;;;11.77;4.50;;;3.30;85.20;;;;;;5114183;28;20419;-67
2021/04/16 04:09:02;;;;;;;12.93;5.13;;;3.30;85.20;;;;;;5114327;28;20051;-67
2021/04/16 04:11:27;;;;;;;12.07;4.97;;;3.30;85.30;;;;;;5114655;28;20863;-67
2021/04/16 04:13:54;;;;;;;14.23;4.80;;;3.30;85.40;;;;;;5113514;28;20301;-67
2021/04/16 04:16:20;;;;;;;12.80;4.97;;;3.30;85.60;;;;;;5114581;28;20051;-67
2021/04/16 04:18:47;;;;;;;12.07;4.63;;;3.30;85.70;;;;;;5114144;28;20320;-66
2021/04/16 04:21:13;;;;;;;12.07;4.53;;;3.20;85.70;;;;;;5113565;28;20048;-67
2021/04/16 04:23:39;;;;;;;10.33;4.70;;;3.20;85.80;;;;;;5114373;28;20301;-67
2021/04/16 04:26:04;;;;;;;13.17;5.27;;;3.30;85.90;;;;;;5113845;28;20445;-67
2021/04/16 04:28:30;;;;;;;10.50;4.90;;;3.30;85.80;;;;;;5113657;28;20047;-67
2021/04/16 04:30:56;;;;;;;13.40;4.80;;;3.30;86.00;;;;;;5112477;28;20497;-67
2021/04/16 04:33:21;;;;;;;9.83;4.70;;;3.30;86.10;;;;;;5113930;27;20048;-67
2021/04/16 04:35:47;;;;;;;9.93;4.30;;;3.30;86.20;;;;;;5113278;28;20432;-67
2021/04/16 04:38:13;;;;;;;9.57;5.30;;;3.20;86.30;;;;;;5113971;28;20467;-67
2021/04/16 04:40:38;;;;;;;11.60;5.33;;;3.20;86.30;;;;;;5114102;28;20543;-67
2021/04/16 04:43:04;;;;;;;6.50;4.20;;;3.20;86.30;;;;;;5112688;28;20039;-67
2021/04/16 04:45:30;;;;;;;10.53;4.43;;;3.30;86.40;;;;;;5113902;28;20461;-67
2021/04/16 04:47:56;;;;;;;8.70;4.50;;;3.30;86.30;;;;;;5113283;28;20823;-67
2021/04/16 04:50:25;;;;;;;6.97;4.53;;;3.30;87.00;;;;;;5113346;28;20301;-68
2021/04/16 04:52:53;;;;;;;7.17;4.60;;;3.40;86.10;;;;;;5113807;28;20047;-67
2021/04/16 04:55:24;;;;;;;9.60;4.53;;;3.40;86.00;;;;;;5113489;28;20317;-67
2021/04/16 04:57:49;;;;;;;9.73;4.33;;;3.40;85.90;;;;;;5107965;28;20281;-67
2021/04/16 05:00:16;;;;;;;10.50;4.87;;;3.50;86.00;;;;;;5113306;28;20377;-67
2021/04/16 05:02:43;;;;;;;10.17;4.97;;;3.50;85.90;;;;;;5113498;28;20044;-67
2021/04/16 05:05:10;;;;;;;8.60;4.37;;;3.60;85.90;;;;;;5112626;28;20305;-67
2021/04/16 05:07:36;;;;;;;11.10;5.13;;;3.60;85.90;;;;;;5113448;28;20676;-67
2021/04/16 05:10:04;;;;;;;8.20;4.87;;;3.60;85.90;;;;;;5112094;28;20294;-67
2021/04/16 05:12:29;;;;;;;7.83;5.17;;;3.60;85.90;;;;;;5113179;28;20805;-68
2021/04/16 05:14:55;;;;;;;13.97;5.43;;;3.70;86.00;;;;;;5112913;28;20324;-67
2021/04/16 05:17:20;;;;;;;8.93;4.50;;;3.60;86.00;;;;;;5112850;28;20096;-67
2021/04/16 05:19:46;;;;;;;12.30;5.60;;;3.70;86.00;;;;;;5113048;28;20130;-67
2021/04/16 05:22:12;;;;;;;11.90;5.57;;;3.70;86.10;;;;;;5113019;28;20063;-67
2021/04/16 05:24:38;;;;;;;14.77;7.13;;;3.70;86.20;;;;;;5112382;28;20468;-67
2021/04/16 05:27:06;;;;;;;13.37;5.83;;;3.70;86.30;;;;;;5112564;28;20460;-67
2021/04/16 05:29:32;;;;;;;15.30;6.40;;;3.70;86.50;;;;;;5113037;28;20070;-67
2021/04/16 05:31:58;;;;;;;15.07;5.87;;;3.80;86.50;;;;;;5112007;28;20684;-67
2021/04/16 05:34:24;;;;;;;16.40;5.80;;;3.90;86.70;;;;;;5112967;28;20051;-67
2021/04/16 05:36:51;;;;;;;10.73;6.13;;;3.90;86.70;;;;;;5112434;28;20301;-67
2021/04/16 05:39:17;;;;;;;10.27;6.80;;;4.00;86.80;;;;;;5111170;28;20051;-67
2021/04/16 05:41:43;;;;;;;10.60;5.67;;;4.10;87.00;;;;;;5111817;28;20654;-66
2021/04/16 05:44:09;;;;;;;11.80;6.10;;;4.30;87.00;;;;;;5112031;28;20048;-67
2021/04/16 05:46:35;;;;;;;11.77;6.07;;;4.40;87.00;;;;;;5111909;28;20773;-66
2021/04/16 05:49:01;;;;;;;11.37;6.50;;;4.60;87.00;;;;;;5108878;28;20519;-66
2021/04/16 05:51:27;;;;;;;13.47;5.97;;;4.70;87.00;;;;;;5112469;28;20792;-66
2021/04/16 05:53:52;;;;;;;10.20;6.03;;;4.80;86.50;;;;;;5111183;28;20290;-66
2021/04/16 05:56:18;;;;;;;14.70;6.53;;;4.80;86.40;;;;;;5111795;28;20088;-66
2021/04/16 05:58:44;;;;;;;11.03;5.97;;;4.90;86.50;;;;;;5112059;28;20047;-66
2021/04/16 06:01:10;;;;;;;13.53;5.23;;;4.90;86.70;;;;;;5111493;28;20301;-66
2021/04/16 06:03:38;;;;;;;12.70;6.03;;;5.00;87.30;;;;;;5112008;28;20504;-67
2021/04/16 06:06:04;;;;;;;15.17;5.63;;;5.20;87.80;;;;;;5111475;28;20126;-66
2021/04/16 06:08:29;;;;;;;12.33;5.43;;;5.50;87.80;;;;;;5111389;28;20388;-66
2021/04/16 06:10:56;;;;;;;8.27;5.83;;;5.70;88.50;;;;;;5110035;28;20142;-66
2021/04/16 06:13:26;;;;;;;12.63;5.03;;;6.10;87.30;;;;;;5111085;28;20734;-66
2021/04/16 06:15:52;;;;;;;12.70;5.00;;;6.40;86.10;;;;;;5111570;28;20305;-66
2021/04/16 06:18:19;;;;;;;10.53;4.60;;;6.40;85.20;;;;;;5111471;28;20305;-67
2021/04/16 06:20:45;;;;;;;15.17;5.17;;;6.40;85.20;;;;;;5110830;28;20286;-66
2021/04/16 06:23:11;;;;;;;13.03;4.47;;;6.40;85.80;;;;;;5111199;28;20382;-66
2021/04/16 06:25:37;;;;;;;10.10;5.03;;;6.30;85.80;;;;;;5111492;28;20066;-66
2021/04/16 06:28:04;;;;;;;11.63;5.33;;;6.30;85.90;;;;;;5110622;28;20434;-66
2021/04/16 06:30:30;;;;;;;9.40;4.97;;;6.30;86.20;;;;;;5112033;28;20344;-67
2021/04/16 06:33:06;;;;;;;14.43;6.03;;;6.30;86.40;;;;;;5111380;28;20297;-67
2021/04/16 06:35:34;;;;;;;8.60;4.97;;;6.30;86.70;;;;;;5111273;28;20324;-67
2021/04/16 06:38:01;;;;;;;12.17;3.93;;;6.50;87.20;;;;;;5111182;28;20452;-67
2021/04/16 06:40:28;;;;;;;9.53;4.50;;;6.80;86.90;;;;;;5112006;28;20293;-67
2021/04/16 06:42:55;;;;;;;12.83;4.40;;;7.00;86.90;;;;;;5110772;28;20769;-67
2021/04/16 06:45:29;;;;;;;9.60;4.07;;;7.20;86.50;;;;;;5111780;28;20323;-67
2021/04/16 06:48:04;;;;;;;12.17;4.27;;;7.60;86.30;;;;;;5111093;28;20342;-67
2021/04/16 06:50:41;;;;;;;8.00;4.07;;;7.60;85.40;;;;;;5110897;28;20388;-66
2021/04/16 06:53:20;;;;;;;11.63;4.10;;;7.70;85.10;;;;;;5111320;28;20297;-67
2021/04/16 06:55:59;;;;;;;12.10;4.30;;;7.60;85.40;;;;;;5113908;28;20322;-67
2021/04/16 06:58:30;;;;;;;10.00;3.90;;;7.60;85.50;;;;;;5115972;28;20790;-67
2021/04/16 07:01:21;;;;;;;9.87;3.87;;;7.70;85.20;;;;;;5115404;28;20642;-67
2021/04/16 07:03:56;;;;;;;10.15;3.50;;;7.70;85.00;;;;;;5114840;28;20332;-66
2021/04/16 07:06:23;;;;;;;10.17;3.40;;;7.80;85.20;;;;;;5115886;28;20131;-67
2021/04/16 07:09:06;;;;;;;12.07;3.93;;;7.80;85.00;;;;;;5115552;28;20293;-66
2021/04/16 07:11:42;;;;;;;10.60;3.37;;;7.90;84.60;;;;;;5115143;28;20400;-66
2021/04/16 07:14:25;;;;;;;9.53;3.90;;;8.00;83.60;;;;;;5115494;28;20328;-68
2021/04/16 07:16:51;;;;;;;10.33;3.23;;;8.10;83.40;;;;;;5114537;28;20346;-66
2021/04/16 07:19:21;;;;;;;11.87;3.10;;;8.20;82.70;;;;;;5115163;28;20293;-67
2021/04/16 07:21:47;;;;;;;12.17;3.03;;;8.20;81.70;;;;;;5114972;27;20043;-67
2021/04/16 07:24:16;;;;;;;7.53;2.80;;;8.30;81.40;;;;;;5114185;28;20330;-67
2021/04/16 07:26:54;;;;;;;8.47;2.97;;;8.60;80.90;;;;;;5115318;28;20293;-67
2021/04/16 07:29:42;;;;;;;11.93;2.63;;;9.00;79.80;;;;;;5115242;28;20362;-67
2021/04/16 07:32:13;;;;;;;7.67;3.17;;;9.10;78.00;;;;;;5114353;28;20305;-67
2021/04/16 07:34:47;;;;;;;7.53;2.63;;;9.30;77.20;;;;;;5115254;28;20382;-67
2021/04/16 07:37:17;;;;;;;7.90;2.50;;;9.30;76.00;;;;;;5114702;28;20489;-67
2021/04/16 07:39:49;;;;;;;6.10;2.30;;;9.20;74.90;;;;;;5114410;28;20388;-67
2021/04/16 07:42:23;;;;;;;7.03;2.40;;;9.30;75.60;;;;;;5114746;28;20319;-68
2021/04/16 07:45:00;;;;;;;7.47;2.40;;;9.30;73.70;;;;;;5114042;28;20297;-68
2021/04/16 07:47:31;;;;;;;6.70;2.33;;;9.40;73.20;;;;;;5115011;28;20301;-67
2021/04/16 07:50:07;;;;;;;4.80;2.17;;;9.60;71.70;;;;;;5114408;28;20290;-66
2021/04/16 07:52:43;;;;;;;4.90;1.97;;;9.70;70.90;;;;;;5114004;28;20293;-67
2021/04/16 07:55:19;;;;;;;6.27;2.83;;;9.80;71.20;;;;;;5114332;28;20429;-66
2021/04/16 07:57:51;;;;;;;7.13;2.40;;;9.90;69.70;;;;;;5114462;28;20849;-66
2021/04/16 08:00:22;;;;;;;4.60;1.80;;;10.00;69.10;;;;;;5114009;28;20368;-67
2021/04/16 08:03:08;;;;;;;;;;;10.20;68.30;;;;;;5114785;28;20040;-66
2021/04/16 08:05:50;;;;;;;5.60;2.37;;;10.70;64.70;;;;;;5113892;28;19919;-66
2021/04/16 08:08:28;;;;;;;5.00;1.80;;;11.10;64.30;;;;;;5114563;28;20051;-66
2021/04/16 08:11:10;;;;;;;7.70;2.13;;;11.30;63.70;;;;;;5114334;28;20108;-67
2021/04/16 08:13:42;;;;;;;4.33;1.93;;;11.60;63.20;;;;;;5113863;28;20067;-67
2021/04/16 08:16:21;;;;;;;3.88;1.42;;;11.90;60.50;;;;;;5113675;28;20051;-67
2021/04/16 08:19:00;;;;;;;6.00;1.60;;;12.10;58.00;;;;;;5114246;28;20104;-66
2021/04/16 08:21:27;;;;;;;5.87;1.70;;;12.00;59.40;;;;;;5113797;28;20614;-67
2021/04/16 08:24:07;;;;;;;4.80;1.60;;;11.90;57.90;;;;;;5113890;28;20060;-67
2021/04/16 08:26:40;;;;;;;3.87;1.47;;;12.00;56.90;;;;;;5114591;28;20085;-67
2021/04/16 08:29:27;;;;;;;6.00;1.60;;;12.20;55.10;;;;;;5113483;28;20200;-67
2021/04/16 08:32:07;;;;;;;2.77;1.10;;;12.50;51.80;;;;;;5113940;28;20059;-67
2021/04/16 08:34:43;;;;;;;2.40;1.27;;;12.70;53.90;;;;;;5112945;28;20131;-67
2021/04/16 08:37:15;;;;;;;3.70;1.27;;;12.70;52.90;;;;;;5111168;28;20515;-66
2021/04/16 08:39:44;;;;;;;3.43;1.80;;;12.80;53.40;;;;;;5113906;28;20159;-67
2021/04/16 08:42:16;;;;;;;3.87;1.50;;;12.80;53.20;;;;;;5112886;28;20543;-67
2021/04/16 08:44:55;;;;;;;3.17;1.27;;;12.80;52.30;;;;;;5113217;28;20058;-68
2021/04/16 08:47:28;;;;;;;4.87;1.40;;;12.70;52.00;;;;;;5113476;28;20095;-67
2021/04/16 08:49:55;;;;;;;5.30;1.70;;;12.70;51.90;;;;;;5112698;28;20091;-67
2021/04/16 08:52:30;;;;;;;5.23;1.50;;;12.60;51.80;;;;;;5113584;28;20078;-66
2021/04/16 08:55:12;;;;;;;3.80;1.83;;;12.70;51.90;;;;;;5112273;28;20469;-67
2021/04/16 08:57:51;;;;;;;2.53;1.60;;;12.80;51.30;;;;;;5113528;28;20047;-67
2021/04/16 09:00:39;;;;;;;2.40;1.80;;;12.80;51.30;;;;;;5113240;28;20047;-67
2021/04/16 09:03:14;;;;;;;4.17;1.30;;;12.90;48.60;;;;;;5112141;28;20193;-67
2021/04/16 09:06:02;;;;;;;4.83;1.50;;;12.80;49.30;;;;;;5112750;28;20054;-67
2021/04/16 09:08:38;;;;;;;4.23;1.80;;;12.80;49.10;;;;;;5112265;28;20404;-67
2021/04/16 09:11:08;;;;;;;1.70;1.13;;;12.80;47.80;;;;;;5112153;28;20048;-68
2021/04/16 09:13:34;;;;;;;3.30;1.90;;;12.70;48.70;;;;;;5113347;28;20040;-67
2021/04/16 09:16:20;;;;;;;4.13;1.80;;;12.40;48.60;;;;;;5111730;28;20051;-67
2021/04/16 09:18:51;;;;;;;2.67;1.43;;;12.40;48.00;;;;;;5112009;28;20508;-67
2021/04/16 09:21:22;;;;;;;3.00;1.30;;;12.20;47.70;;;;;;5113204;28;20055;-66
2021/04/16 09:23:48;;;;;;;3.35;1.38;;;12.10;49.50;;;;;;5112006;28;20043;-67
2021/04/16 09:26:49;;;;;;;1.63;1.00;;;12.00;49.20;;;;;;5112605;28;20093;-67
2021/04/16 09:29:27;;;;;;;2.22;1.20;;;12.10;47.70;;;;;;5093109;28;20105;-67
2021/04/16 09:32:03;;;;;;;3.77;1.60;;;12.20;47.90;;;;;;5111952;28;20047;-65
2021/04/16 09:34:48;;;;;;;4.13;1.33;;;12.10;49.20;;;;;;5112585;28;20051;-66
2021/04/16 09:37:33;;;;;;;2.87;1.53;;;12.10;48.90;;;;;;5111714;28;20130;-65
2021/04/16 09:40:18;;;;;;;2.67;1.50;;;12.00;49.10;;;;;;5112289;28;20060;-65
2021/04/16 09:43:08;;;;;;;3.70;1.60;;;12.00;48.20;;;;;;5112304;28;20130;-65
2021/04/16 09:45:34;;;;;;;4.17;1.50;;;12.10;48.50;;;;;;5111633;28;20052;-65
2021/04/16 09:48:19;;;;;;;4.73;1.60;;;12.20;49.40;;;;;;5111684;28;20050;-65
2021/04/16 09:50:52;;;;;;;4.90;2.07;;;12.20;49.80;;;;;;5112268;28;20051;-65
2021/04/16 09:53:23;;;;;;;3.03;1.93;;;12.10;49.80;;;;;;5111219;28;20063;-66
2021/04/16 09:56:15;;;;;;;4.25;2.35;;;12.10;50.30;;;;;;5112009;28;20047;-66
2021/04/16 09:58:50;;;;;;;7.97;3.57;;;12.00;51.10;;;;;;5111583;28;20138;-66
2021/04/16 10:01:21;;;;;;;5.70;2.03;;;11.90;51.60;;;;;;5112024;28;20054;-66
2021/04/16 10:03:56;;;;;;;6.25;2.13;;;11.90;52.00;;;;;;5111945;28;20043;-66
2021/04/16 10:06:22;;;;;;;7.53;2.37;;;11.70;53.00;;;;;;5110817;28;20135;-67
2021/04/16 10:09:15;;;;;;;3.63;1.93;;;11.50;53.40;;;;;;5111559;28;20098;-66
2021/04/16 10:11:53;;;;;;;5.10;1.90;;;11.30;53.80;;;;;;5111192;28;20101;-67
2021/04/16 10:14:30;;;;;;;5.77;2.10;;;11.20;54.30;;;;;;5110741;28;20055;-66
2021/04/16 10:17:06;;;;;;;3.77;2.10;;;11.10;54.50;;;;;;5111239;28;20052;-66
2021/04/16 10:19:39;;;;;;;5.70;2.30;;;11.10;54.10;;;;;;5111153;28;20067;-65
2021/04/16 10:22:35;;;;;;;4.33;2.27;;;11.10;54.80;;;;;;5111292;28;20058;-65
2021/04/16 12:40:55;;;;;;;9.03;4.40;;;12.10;57.20;;;;;;5112681;28;20060;-66
2021/04/16 12:43:21;;;;;;;9.27;3.53;;;12.20;57.20;;;;;;5113801;28;20048;-66
2021/04/16 12:45:50;;;;;;;9.50;4.37;;;12.30;56.60;;;;;;5113388;28;20046;-66
2021/04/16 12:48:15;;;;;;;10.50;4.20;;;12.30;56.60;;;;;;5112637;28;20605;-66
2021/04/16 12:50:41;;;;;;;10.03;4.07;;;12.40;56.40;;;;;;5113316;28;20064;-67
2021/04/16 12:53:06;;;;;;;7.33;3.80;;;12.30;56.80;;;;;;5112051;28;20071;-66
2021/04/16 12:55:32;;;;;;;8.23;4.70;;;12.20;56.90;;;;;;5113056;28;20044;-66
2021/04/16 12:58:03;;;;;;;6.33;3.33;;;12.20;57.00;;;;;;5113091;28;20384;-66
2021/04/16 13:00:37;;;;;;;6.30;3.78;;;12.30;57.20;;;;;;5113446;28;20507;-66
2021/04/16 13:03:14;;;;;;;5.60;3.43;;;12.50;56.30;;;;;;5112085;28;20043;-66
2021/04/16 13:05:42;;;;;;;9.00;4.20;;;12.60;54.30;;;;;;5113293;28;20052;-66
2021/04/16 13:08:07;;;;;;;5.93;3.57;;;12.70;55.20;;;;;;5112017;28;20040;-67
2021/04/16 13:10:53;;;;;;;6.53;3.90;;;12.70;54.50;;;;;;5112074;28;20047;-66
2021/04/16 13:13:19;;;;;;;6.40;3.90;;;12.70;54.40;;;;;;5112611;28;20089;-66
2021/04/16 13:15:45;;;;;;;8.87;4.83;;;12.60;54.80;;;;;;5111658;28;20047;-66
2021/04/16 13:18:19;;;;;;;10.40;4.50;;;12.50;55.60;;;;;;5112591;28;20071;-65
2021/04/16 13:20:48;;;;;;;8.40;4.60;;;12.50;56.10;;;;;;5112755;28;20075;-66
2021/04/16 13:23:14;;;;;;;7.77;4.37;;;12.50;55.90;;;;;;5112055;28;20055;-65
2021/04/16 13:25:42;;;;;;;7.10;3.40;;;12.50;55.40;;;;;;5112112;27;20109;-66
2021/04/16 13:28:09;;;;;;;7.50;4.00;;;12.50;54.50;;;;;;5110550;28;20047;-66
2021/04/16 13:30:34;;;;;;;6.87;3.30;;;12.40;54.00;;;;;;5109749;28;20452;-66
2021/04/16 13:33:03;;;;;;;8.90;4.13;;;12.40;54.00;;;;;;5110155;28;20048;-66
2021/04/16 13:35:36;;;;;;;7.90;3.80;;;12.50;54.00;;;;;;5110674;28;20047;-66
2021/04/16 13:38:06;;;;;;;6.50;3.73;;;12.50;54.10;;;;;;5109617;28;20541;-66
2021/04/16 13:40:33;;;;;;;8.27;3.97;;;12.60;54.10;;;;;;5110959;28;20052;-66
2021/04/16 13:43:00;;;;;;;6.23;3.70;;;12.60;54.10;;;;;;5109785;28;20047;-66
2021/04/16 13:45:25;;;;;;;4.73;2.10;;;12.70;53.30;;;;;;5109870;28;20051;-66
2021/04/16 13:47:51;;;;;;;6.80;3.50;;;12.70;51.80;;;;;;5110066;28;20051;-66
2021/04/16 13:50:18;;;;;;;5.73;3.10;;;12.60;51.30;;;;;;5111572;28;20112;-66
2021/04/16 13:52:44;;;;;;;7.13;4.10;;;12.70;51.80;;;;;;5112050;28;20497;-66
2021/04/16 13:55:12;;;;;;;8.03;4.03;;;12.70;52.00;;;;;;5111848;28;20442;-66
2021/04/16 13:57:39;;;;;;;4.77;3.17;;;12.70;52.60;;;;;;5111363;28;20116;-66
2021/04/16 14:00:06;;;;;;;7.10;4.00;;;12.70;52.90;;;;;;5111322;28;20404;-66
2021/04/16 14:02:36;;;;;;;4.67;2.90;;;12.80;53.10;;;;;;5112038;28;20059;-66
2021/04/16 14:05:05;;;;;;;5.43;3.23;;;12.80;51.40;;;;;;5110713;28;20058;-66
2021/04/16 14:07:31;;;;;;;6.30;3.37;;;12.80;51.70;;;;;;5111876;28;20047;-67
2021/04/16 14:09:57;;;;;;;5.67;3.70;;;12.70;50.80;;;;;;5111472;28;20554;-66
2021/04/16 14:12:25;;;;;;;7.13;3.23;;;12.50;51.40;;;;;;5126861;27;20054;-67
2021/04/16 14:14:51;;;;;;;8.73;3.77;;;12.50;51.50;;;;;;5131962;27;20408;-69
2021/04/16 14:17:22;;;;;;;8.57;3.83;;;12.50;52.00;;;;;;5132105;27;20043;-68
2021/04/16 14:20:03;;;;;;;8.30;3.35;;;12.50;52.20;;;;;;5116578;27;20175;-68
2021/04/16 14:22:36;;;;;;;7.45;3.30;;;12.50;51.40;;;;;;5110166;28;20142;-68
2021/04/16 14:25:03;;;;;;;5.93;2.60;;;12.50;51.70;;;;;;5110258;28;20535;-68
2021/04/16 14:27:28;;;;;;;4.00;2.77;;;12.50;50.80;;;;;;5110831;28;20047;-68
2021/04/16 14:29:54;;;;;;;5.60;3.10;;;12.40;49.10;;;;;;5111381;28;20036;-68
2021/04/16 14:32:22;;;;;;;4.87;2.67;;;12.40;49.20;;;;;;5111888;28;20108;-68
2021/04/16 14:34:48;;;;;;;5.30;2.70;;;12.30;49.50;;;;;;5110547;28;20050;-68
2021/04/16 14:37:14;;;;;;;6.37;3.10;;;12.40;49.30;;;;;;5111120;28;20051;-68
2021/04/16 14:39:40;;;;;;;4.40;2.70;;;12.30;49.20;;;;;;5110690;28;20150;-68
2021/04/16 14:42:06;;;;;;;3.50;2.23;;;12.30;49.10;;;;;;5111465;28;20047;-67
2021/04/16 14:44:31;;;;;;;3.80;2.13;;;12.20;48.50;;;;;;5111646;28;20048;-67
2021/04/16 14:46:57;;;;;;;3.67;1.70;;;12.10;48.40;;;;;;5110332;28;20047;-68
2021/04/16 14:49:31;;;;;;;3.20;1.20;;;12.20;46.80;;;;;;5111258;28;20357;-68
2021/04/16 14:52:00;;;;;;;2.00;1.30;;;12.10;44.80;;;;;;5110271;28;20170;-68
2021/04/16 14:54:35;;;;;;;1.77;1.40;;;12.10;43.60;;;;;;5102441;28;20052;-68
2021/04/16 14:57:03;;;;;;;3.23;1.53;;;12.00;43.50;;;;;;5110299;28;20173;-68
2021/04/16 14:59:41;;;;;;;2.77;1.60;;;12.00;44.10;;;;;;5111281;28;20075;-68
2021/04/16 15:02:07;;;;;;;6.20;2.13;;;11.90;44.00;;;;;;5110215;28;20116;-68
2021/04/16 15:04:33;;;;;;;3.60;2.03;;;11.90;44.80;;;;;;5111530;28;20082;-67
2021/04/16 15:07:02;;;;;;;3.87;1.90;;;11.80;45.00;;;;;;5110989;28;20075;-67
2021/04/16 15:09:57;;;;;;;3.70;1.53;;;11.80;45.50;;;;;;5110714;28;20055;-67
2021/04/16 15:12:25;;;;;;;4.17;2.00;;;11.80;45.00;;;;;;5108080;28;20044;-67
2021/04/16 15:14:56;;;;;;;3.60;2.10;;;11.70;44.40;;;;;;5110268;28;20064;-67
2021/04/16 15:17:23;;;;;;;2.90;1.80;;;11.70;44.70;;;;;;5115575;28;20056;-68
2021/04/16 15:19:53;;;;;;;3.27;1.97;;;11.70;45.50;;;;;;5114945;28;20297;-67
2021/04/16 15:22:22;;;;;;;5.10;2.50;;;11.70;46.10;;;;;;5114490;28;20170;-70